createdAt,value
2022-09-13T00:00:53.186Z,22.19
2022-09-13T00:03:22.083Z,22.19
2022-09-13T00:05:50.414Z,22.19
2022-09-13T00:08:18.888Z,22.20
2022-09-13T00:10:47.506Z,22.19
2022-09-13T00:13:18.049Z,22.21
2022-09-13T00:15:48.017Z,22.19
2022-09-13T00:18:18.458Z,22.21
2022-09-13T00:20:46.649Z,22.21
2022-09-13T00:23:14.826Z,22.22
2022-09-13T00:25:42.718Z,22.22
2022-09-13T00:28:10.581Z,22.21
2022-09-13T00:30:38.533Z,22.23
2022-09-13T00:33:06.420Z,22.25
2022-09-13T00:35:35.733Z,22.26
2022-09-13T00:38:03.692Z,22.27
2022-09-13T00:40:31.577Z,22.27
2022-09-13T00:42:59.479Z,22.29
2022-09-13T00:45:27.570Z,22.28
2022-09-13T00:47:58.464Z,22.31
2022-09-13T00:50:32.386Z,22.31
2022-09-13T00:53:06.989Z,22.32
2022-09-13T00:55:43.217Z,22.32
2022-09-13T00:58:18.758Z,22.32
2022-09-13T01:00:48.505Z,22.32
2022-09-13T01:03:18.404Z,22.32
2022-09-13T01:05:50.090Z,22.33
2022-09-13T01:08:22.490Z,22.33
2022-09-13T01:10:52.915Z,22.33
2022-09-13T01:13:22.981Z,22.31
2022-09-13T01:15:52.002Z,22.34
2022-09-13T01:18:20.120Z,22.35
2022-09-13T01:21:18.744Z,22.37
2022-09-13T01:24:06.886Z,22.35
2022-09-13T01:26:55.436Z,22.35
2022-09-13T01:29:49.184Z,22.35
2022-09-13T01:32:25.784Z,22.34
2022-09-13T01:35:04.545Z,22.37
2022-09-13T01:37:44.845Z,22.36
2022-09-13T01:40:25.608Z,22.36
2022-09-13T01:43:13.744Z,22.39
2022-09-13T01:45:54.931Z,22.38
2022-09-13T01:48:32.501Z,22.36
2022-09-13T01:51:06.637Z,22.38
2022-09-13T01:53:47.289Z,22.41
2022-09-13T01:56:22.444Z,22.39
2022-09-13T01:58:55.752Z,22.40
2022-09-13T02:01:29.833Z,22.39
2022-09-13T02:04:04.729Z,22.04
2022-09-13T02:06:37.757Z,22.42
2022-09-13T02:09:12.724Z,22.43
2022-09-13T02:11:43.688Z,22.42
2022-09-13T02:14:16.072Z,22.45
2022-09-13T02:16:48.982Z,22.43
2022-09-13T02:19:22.994Z,22.46
2022-09-13T02:21:56.569Z,22.46
2022-09-13T02:24:29.309Z,22.49
2022-09-13T02:27:00.665Z,22.47
2022-09-13T02:29:32.361Z,22.46
2022-09-13T02:32:06.564Z,22.47
2022-09-13T02:34:41.384Z,22.47
2022-09-13T02:37:10.994Z,22.41
2022-09-13T02:39:44.410Z,22.48
2022-09-13T02:42:18.178Z,22.45
2022-09-13T02:44:49.953Z,22.45
2022-09-13T02:47:35.280Z,22.46
2022-09-13T02:50:15.441Z,22.45
2022-09-13T02:52:52.528Z,22.27
2022-09-13T02:55:25.968Z,22.43
2022-09-13T02:58:01.701Z,22.42
2022-09-13T03:00:30.272Z,22.43
2022-09-13T03:03:02.512Z,22.44
2022-09-13T03:05:32.062Z,22.44
2022-09-13T03:08:01.265Z,22.43
2022-09-13T03:10:37.950Z,22.45
2022-09-13T03:13:28.456Z,22.44
2022-09-13T03:16:07.875Z,22.45
2022-09-13T03:18:49.551Z,22.44
2022-09-13T03:21:35.973Z,22.42
2022-09-13T03:24:14.498Z,22.44
2022-09-13T03:26:57.343Z,22.44
2022-09-13T03:29:31.714Z,22.44
2022-09-13T03:32:11.757Z,22.44
2022-09-13T03:34:49.134Z,22.44
2022-09-13T03:37:28.870Z,22.44
2022-09-13T03:40:01.107Z,22.44
2022-09-13T03:42:35.065Z,22.45
2022-09-13T03:45:04.729Z,22.44
2022-09-13T03:47:36.537Z,22.44
2022-09-13T03:50:05.616Z,22.44
2022-09-13T03:52:35.793Z,22.44
2022-09-13T03:55:03.952Z,22.45
2022-09-13T03:57:31.882Z,22.46
2022-09-13T03:59:59.884Z,22.47
2022-09-13T04:02:28.489Z,22.48
2022-09-13T04:04:56.444Z,22.49
2022-09-13T04:07:25.954Z,22.50
2022-09-13T04:09:56.074Z,22.50
2022-09-13T04:12:24.025Z,22.49
2022-09-13T04:14:52.499Z,22.49
2022-09-13T04:17:20.825Z,22.47
2022-09-13T04:19:48.750Z,22.48
2022-09-13T04:22:17.133Z,22.10
2022-09-13T04:24:45.008Z,22.49
2022-09-13T04:27:14.733Z,22.50
2022-09-13T04:29:42.605Z,22.49
2022-09-13T04:32:11.121Z,22.50
2022-09-13T04:34:38.968Z,22.50
2022-09-13T04:37:06.954Z,22.51
2022-09-13T04:39:34.909Z,22.51
2022-09-13T04:42:02.890Z,22.52
2022-09-13T04:44:32.353Z,22.48
2022-09-13T04:47:00.472Z,22.52
2022-09-13T04:49:28.325Z,22.53
2022-09-13T04:51:56.254Z,22.53
2022-09-13T04:54:24.341Z,22.53
2022-09-13T04:56:52.309Z,22.55
2022-09-13T04:59:20.186Z,22.55
2022-09-13T05:01:49.535Z,22.56
2022-09-13T05:04:17.503Z,22.14
2022-09-13T05:06:45.501Z,22.57
2022-09-13T05:09:15.058Z,22.58
2022-09-13T05:11:43.686Z,22.58
2022-09-13T05:14:12.682Z,22.59
2022-09-13T05:16:40.733Z,22.61
2022-09-13T05:19:11.087Z,22.61
2022-09-13T05:21:39.465Z,22.61
2022-09-13T05:24:07.526Z,22.62
2022-09-13T05:26:35.395Z,22.61
2022-09-13T05:29:03.559Z,22.62
2022-09-13T05:31:33.392Z,22.62
2022-09-13T05:34:03.514Z,22.60
2022-09-13T05:36:33.511Z,22.64
2022-09-13T05:39:28.461Z,22.63
2022-09-13T05:41:49.874Z,22.58
2022-09-13T05:44:17.713Z,22.63
2022-09-13T05:46:48.380Z,22.65
2022-09-13T05:49:16.488Z,22.62
2022-09-13T05:51:45.744Z,22.65
2022-09-13T05:54:14.232Z,22.57
2022-09-13T05:56:42.124Z,22.67
2022-09-13T05:59:13.107Z,22.68
2022-09-13T06:01:41.352Z,22.65
2022-09-13T06:04:09.253Z,22.65
2022-09-13T06:06:37.187Z,22.69
2022-09-13T06:09:08.635Z,22.62
2022-09-13T06:11:36.516Z,22.71
2022-09-13T06:14:04.393Z,22.72
2022-09-13T06:16:32.328Z,22.73
2022-09-13T06:19:00.761Z,22.73
2022-09-13T06:21:29.416Z,22.74
2022-09-13T06:23:57.936Z,22.56
2022-09-13T06:26:29.129Z,22.77
2022-09-13T06:28:58.392Z,22.78
2022-09-13T06:31:28.053Z,22.79
2022-09-13T06:34:02.501Z,22.79
2022-09-13T06:36:31.184Z,22.78
2022-09-13T06:39:00.719Z,22.79
2022-09-13T06:41:30.133Z,22.79
2022-09-13T06:44:00.127Z,22.81
2022-09-13T06:46:29.885Z,22.63
2022-09-13T06:49:00.899Z,22.77
2022-09-13T06:51:29.728Z,22.80
2022-09-13T06:53:58.268Z,22.81
2022-09-13T06:56:28.059Z,22.80
2022-09-13T06:58:59.711Z,22.82
2022-09-13T07:01:29.604Z,22.83
2022-09-13T07:04:00.355Z,22.85
2022-09-13T07:06:29.845Z,22.86
2022-09-13T07:08:58.984Z,22.90
2022-09-13T07:11:30.126Z,22.91
2022-09-13T07:14:01.041Z,22.93
2022-09-13T07:16:30.492Z,22.94
2022-09-13T07:18:59.664Z,22.95
2022-09-13T07:21:28.845Z,22.94
2022-09-13T07:23:57.699Z,22.80
2022-09-13T07:26:27.450Z,22.98
2022-09-13T07:28:57.741Z,23.02
2022-09-13T07:31:28.973Z,23.01
2022-09-13T07:33:58.391Z,22.61
2022-09-13T07:36:27.527Z,23.01
2022-09-13T07:38:56.188Z,23.01
2022-09-13T07:41:26.875Z,23.04
2022-09-13T07:43:54.871Z,23.03
2022-09-13T07:46:24.154Z,23.04
2022-09-13T07:48:55.988Z,23.06
2022-09-13T07:51:25.071Z,23.04
2022-09-13T07:53:57.456Z,23.07
2022-09-13T07:56:28.111Z,23.06
2022-09-13T07:58:56.546Z,23.06
2022-09-13T08:01:26.691Z,23.07
2022-09-13T08:03:58.064Z,23.08
2022-09-13T08:06:28.103Z,23.09
2022-09-13T08:08:56.578Z,23.06
2022-09-13T08:11:27.321Z,23.11
2022-09-13T08:13:55.237Z,23.10
2022-09-13T08:16:25.180Z,23.11
2022-09-13T08:18:55.620Z,23.11
2022-09-13T08:21:25.899Z,23.10
2022-09-13T08:23:59.777Z,23.09
2022-09-13T08:26:28.059Z,23.06
2022-09-13T08:29:00.020Z,23.06
2022-09-13T08:31:28.950Z,22.90
2022-09-13T08:33:57.740Z,23.04
2022-09-13T08:36:27.844Z,23.04
2022-09-13T08:38:57.810Z,23.04
2022-09-13T08:41:52.407Z,23.05
2022-09-13T08:44:28.772Z,23.05
2022-09-13T08:47:03.764Z,23.05
2022-09-13T08:49:35.683Z,23.06
2022-09-13T08:52:17.969Z,23.07
2022-09-13T08:54:45.918Z,23.06
2022-09-13T08:57:19.649Z,23.06
2022-09-13T08:59:59.441Z,23.08
2022-09-13T09:02:49.194Z,23.06
2022-09-13T09:05:20.262Z,23.05
2022-09-13T09:07:54.954Z,23.07
2022-09-13T09:10:28.623Z,23.06
2022-09-13T09:13:00.417Z,23.01
2022-09-13T09:15:34.681Z,23.08
2022-09-13T09:18:08.291Z,23.04
2022-09-13T09:20:41.346Z,23.07
2022-09-13T09:23:21.116Z,23.06
2022-09-13T09:25:52.998Z,23.07
2022-09-13T09:28:20.935Z,22.65
2022-09-13T09:30:58.748Z,23.10
2022-09-13T09:33:45.368Z,22.92
2022-09-13T09:36:24.220Z,23.11
2022-09-13T09:38:53.565Z,23.11
2022-09-13T09:41:28.963Z,23.11
2022-09-13T09:44:03.636Z,23.12
2022-09-13T09:46:34.609Z,23.10
2022-09-13T09:49:29.769Z,23.11
2022-09-13T09:51:58.969Z,23.10
2022-09-13T09:54:31.619Z,23.11
2022-09-13T09:56:59.944Z,23.11
2022-09-13T09:59:31.244Z,23.12
2022-09-13T10:02:00.281Z,23.11
2022-09-13T10:04:30.266Z,23.11
2022-09-13T10:07:20.201Z,23.12
2022-09-13T10:10:03.389Z,23.13
2022-09-13T10:12:35.279Z,23.13
2022-09-13T10:15:15.472Z,23.14
2022-09-13T10:17:43.768Z,23.14
2022-09-13T10:20:23.371Z,23.16
2022-09-13T10:23:13.521Z,23.10
2022-09-13T10:25:47.889Z,23.16
2022-09-13T10:28:20.537Z,23.15
2022-09-13T10:30:54.481Z,23.15
2022-09-13T10:33:28.207Z,23.00
2022-09-13T10:35:58.849Z,23.15
2022-09-13T10:38:31.771Z,23.15
2022-09-13T10:41:03.898Z,23.14
2022-09-13T10:43:33.232Z,23.16
2022-09-13T10:46:02.924Z,23.17
2022-09-13T10:48:32.485Z,23.18
2022-09-13T10:51:08.984Z,23.19
2022-09-13T10:53:39.173Z,23.20
2022-09-13T10:56:21.444Z,23.23
2022-09-13T10:58:49.855Z,23.24
2022-09-13T11:01:40.510Z,23.27
2022-09-13T11:04:53.044Z,23.28
2022-09-13T11:07:47.841Z,23.30
2022-09-13T11:10:22.137Z,23.33
2022-09-13T11:13:03.925Z,23.35
2022-09-13T11:15:44.808Z,23.38
2022-09-13T11:18:36.200Z,23.33
2022-09-13T11:21:18.421Z,23.39
2022-09-13T11:24:04.440Z,23.42
2022-09-13T11:26:45.409Z,23.44
2022-09-13T11:29:30.409Z,23.45
2022-09-13T11:32:09.421Z,23.47
2022-09-13T11:34:49.397Z,23.47
2022-09-13T11:37:30.888Z,23.48
2022-09-13T11:40:09.913Z,23.48
2022-09-13T11:42:51.040Z,23.48
2022-09-13T11:45:25.189Z,23.49
2022-09-13T11:48:17.673Z,23.48
2022-09-13T11:50:57.130Z,23.46
2022-09-13T11:53:50.358Z,23.50
2022-09-13T11:56:25.328Z,23.49
2022-09-13T11:58:55.953Z,23.48
2022-09-13T12:01:29.363Z,23.51
2022-09-13T12:04:05.187Z,23.35
2022-09-13T12:06:37.093Z,23.53
2022-09-13T12:09:12.532Z,23.42
2022-09-13T12:11:46.188Z,23.54
2022-09-13T12:14:18.862Z,23.56
2022-09-13T12:16:52.543Z,23.57
2022-09-13T12:19:25.860Z,23.58
2022-09-13T12:21:55.911Z,23.58
2022-09-13T12:24:35.939Z,23.60
2022-09-13T12:27:09.124Z,23.58
2022-09-13T12:29:41.551Z,23.57
2022-09-13T12:32:12.334Z,23.60
2022-09-13T12:34:45.934Z,23.61
2022-09-13T12:37:29.220Z,23.58
2022-09-13T12:40:12.352Z,23.63
2022-09-13T12:43:12.075Z,23.61
2022-09-13T12:46:00.266Z,23.59
2022-09-13T12:49:00.961Z,23.60
2022-09-13T12:51:44.316Z,23.48
2022-09-13T12:54:38.698Z,23.59
2022-09-13T12:57:25.005Z,23.59
2022-09-13T13:00:13.948Z,23.59
2022-09-13T13:02:46.145Z,23.39
2022-09-13T13:05:27.065Z,23.58
2022-09-13T13:07:58.284Z,23.60
2022-09-13T13:10:30.730Z,23.60
2022-09-13T13:13:11.448Z,23.63
2022-09-13T13:16:02.641Z,23.57
2022-09-13T13:18:33.514Z,23.54
2022-09-13T13:21:34.654Z,23.56
2022-09-13T13:24:40.913Z,23.51
2022-09-13T13:27:39.287Z,23.48
2022-09-13T13:30:51.294Z,23.46
2022-09-13T13:33:22.940Z,23.44
2022-09-13T13:35:51.674Z,23.45
2022-09-13T13:38:54.457Z,23.42
2022-09-13T13:41:44.632Z,23.45
2022-09-13T13:44:59.052Z,23.44
2022-09-13T13:48:17.818Z,23.41
2022-09-13T13:51:18.765Z,23.40
2022-09-13T13:53:55.179Z,23.38
2022-09-13T13:56:29.840Z,23.40
2022-09-13T13:59:04.654Z,23.41
2022-09-13T14:01:35.242Z,23.38
2022-09-13T14:04:40.395Z,23.43
2022-09-13T14:07:21.145Z,23.25
2022-09-13T14:09:56.478Z,23.43
2022-09-13T14:12:40.465Z,23.36
2022-09-13T14:15:40.146Z,23.42
2022-09-13T14:18:46.504Z,23.41
2022-09-13T14:21:23.977Z,23.27
2022-09-13T14:23:53.628Z,23.41
2022-09-13T14:26:23.020Z,23.44
2022-09-13T14:28:50.937Z,23.43
2022-09-13T14:31:21.221Z,23.46
2022-09-13T14:33:49.467Z,23.46
2022-09-13T14:36:20.914Z,23.46
2022-09-13T14:38:55.067Z,23.48
2022-09-13T14:41:32.425Z,23.49
2022-09-13T14:44:22.478Z,23.48
2022-09-13T14:46:56.988Z,23.46
2022-09-13T14:49:27.719Z,23.49
2022-09-13T14:52:01.029Z,23.49
2022-09-13T14:54:35.165Z,23.48
2022-09-13T14:57:08.116Z,23.49
2022-09-13T14:59:44.449Z,23.48
2022-09-13T15:02:20.813Z,23.49
2022-09-13T15:04:52.396Z,23.44
2022-09-13T15:07:24.654Z,23.47
2022-09-13T15:09:58.634Z,23.47
2022-09-13T15:12:30.031Z,23.45
2022-09-13T15:15:28.137Z,23.46
2022-09-13T15:17:58.273Z,23.43
2022-09-13T15:20:28.311Z,23.46
2022-09-13T15:22:56.671Z,23.47
2022-09-13T15:25:27.585Z,23.50
2022-09-13T15:27:58.572Z,23.52
2022-09-13T15:30:29.629Z,23.54
2022-09-13T15:33:17.578Z,23.54
2022-09-13T15:35:47.392Z,23.54
2022-09-13T15:38:23.742Z,23.58
2022-09-13T15:41:01.389Z,23.58
2022-09-13T15:43:31.481Z,23.60
2022-09-13T15:46:01.625Z,23.60
2022-09-13T15:48:31.321Z,23.55
2022-09-13T15:51:08.565Z,23.64
2022-09-13T15:53:36.712Z,23.64
2022-09-13T15:56:05.673Z,23.65
2022-09-13T15:58:36.188Z,23.67
2022-09-13T16:01:05.063Z,23.67
2022-09-13T16:03:33.605Z,23.67
2022-09-13T16:06:01.486Z,23.68
2022-09-13T16:08:29.356Z,23.67
2022-09-13T16:10:57.480Z,23.68
2022-09-13T16:13:25.337Z,23.70
2022-09-13T16:15:57.685Z,23.70
2022-09-13T16:18:26.548Z,23.53
2022-09-13T16:20:54.450Z,23.70
2022-09-13T16:23:22.404Z,23.71
2022-09-13T16:25:53.649Z,23.70
2022-09-13T16:28:21.752Z,23.72
2022-09-13T16:30:50.289Z,23.71
2022-09-13T16:33:19.751Z,23.72
2022-09-13T16:35:47.883Z,23.70
2022-09-13T16:38:16.120Z,23.70
2022-09-13T16:40:45.175Z,23.55
2022-09-13T16:43:13.840Z,23.67
2022-09-13T16:45:44.879Z,23.67
2022-09-13T16:48:13.131Z,23.66
2022-09-13T16:50:42.596Z,23.65
2022-09-13T16:53:10.486Z,23.66
2022-09-13T16:55:38.425Z,23.68
2022-09-13T16:58:06.292Z,23.68
2022-09-13T17:00:34.149Z,23.69
2022-09-13T17:03:02.066Z,23.62
2022-09-13T17:05:29.963Z,23.64
2022-09-13T17:07:59.254Z,23.67
2022-09-13T17:10:28.704Z,23.64
2022-09-13T17:12:56.567Z,23.62
2022-09-13T17:15:24.518Z,23.58
2022-09-13T17:17:52.377Z,23.59
2022-09-13T17:20:20.356Z,23.56
2022-09-13T17:22:48.237Z,23.53
2022-09-13T17:25:17.772Z,23.52
2022-09-13T17:27:45.656Z,23.50
2022-09-13T17:30:14.890Z,23.49
2022-09-13T17:32:42.758Z,23.46
2022-09-13T17:35:12.065Z,23.39
2022-09-13T17:37:40.103Z,23.41
2022-09-13T17:40:08.653Z,23.41
2022-09-13T17:42:38.040Z,23.39
2022-09-13T17:45:06.877Z,23.39
2022-09-13T17:47:35.068Z,23.38
2022-09-13T17:50:03.209Z,23.39
2022-09-13T17:52:34.725Z,23.37
2022-09-13T17:55:02.976Z,23.36
2022-09-13T17:57:30.930Z,23.35
2022-09-13T18:00:00.365Z,23.35
2022-09-13T18:02:29.623Z,23.33
2022-09-13T18:04:58.912Z,23.36
2022-09-13T18:07:30.087Z,23.34
2022-09-13T18:09:58.302Z,23.34
2022-09-13T18:12:28.012Z,23.35
2022-09-13T18:14:55.987Z,23.35
2022-09-13T18:17:25.324Z,23.37
2022-09-13T18:19:53.590Z,23.34
2022-09-13T18:22:22.141Z,23.34
2022-09-13T18:24:50.660Z,23.35
2022-09-13T18:27:19.496Z,23.34
2022-09-13T18:29:48.384Z,23.34
2022-09-13T18:32:17.208Z,23.33
2022-09-13T18:34:47.192Z,23.33
2022-09-13T18:37:15.418Z,23.30
2022-09-13T18:39:44.425Z,23.32
2022-09-13T18:42:12.505Z,23.31
2022-09-13T18:44:40.574Z,23.31
2022-09-13T18:47:14.518Z,23.30
2022-09-13T18:49:43.878Z,23.28
2022-09-13T18:52:14.941Z,23.27
2022-09-13T18:54:44.642Z,23.05
2022-09-13T18:57:14.402Z,23.24
2022-09-13T18:59:46.009Z,23.25
2022-09-13T19:02:15.136Z,23.24
2022-09-13T19:04:44.408Z,23.22
2022-09-13T19:07:14.433Z,23.21
2022-09-13T19:09:43.526Z,23.20
2022-09-13T19:12:12.484Z,23.20
2022-09-13T19:14:41.798Z,22.75
2022-09-13T19:17:11.212Z,23.18
2022-09-13T19:19:42.069Z,23.16
2022-09-13T19:22:11.390Z,23.16
2022-09-13T19:24:44.616Z,23.16
2022-09-13T19:27:13.437Z,23.15
2022-09-13T19:29:42.575Z,23.16
2022-09-13T19:32:12.099Z,23.18
2022-09-13T19:34:43.599Z,23.18
2022-09-13T19:37:21.059Z,23.18
2022-09-13T19:39:56.296Z,23.19
2022-09-13T19:42:26.501Z,23.19
2022-09-13T19:44:55.727Z,23.20
2022-09-13T19:50:16.112Z,23.18
2022-09-13T19:52:46.815Z,23.19
2022-09-13T19:55:19.097Z,23.21
2022-09-13T19:57:48.634Z,23.18
2022-09-13T20:00:20.944Z,23.19
2022-09-13T20:02:50.672Z,23.19
2022-09-13T20:05:18.974Z,23.18
2022-09-13T20:07:47.088Z,23.17
2022-09-13T20:10:16.517Z,23.19
2022-09-13T20:12:44.600Z,23.18
2022-09-13T20:15:12.735Z,23.19
2022-09-13T20:17:41.105Z,23.18
2022-09-13T20:20:09.825Z,23.16
2022-09-13T20:22:37.740Z,23.17
2022-09-13T20:25:06.821Z,23.16
2022-09-13T20:27:38.113Z,23.15
2022-09-13T20:30:07.721Z,23.14
2022-09-13T20:32:35.597Z,23.13
2022-09-13T20:35:03.548Z,23.11
2022-09-13T20:37:31.432Z,23.11
2022-09-13T20:40:03.116Z,23.10
2022-09-13T20:42:31.076Z,23.09
2022-09-13T20:45:00.364Z,23.07
2022-09-13T20:47:29.197Z,23.08
2022-09-13T20:49:57.177Z,23.06
2022-09-13T20:52:25.173Z,23.04
2022-09-13T20:54:53.008Z,23.04
2022-09-13T20:57:21.197Z,23.03
2022-09-13T20:59:49.109Z,23.02
2022-09-13T21:02:18.520Z,23.03
2022-09-13T21:04:46.404Z,23.00
2022-09-13T21:07:31.321Z,23.00
2022-09-13T21:10:01.022Z,22.99
2022-09-13T21:12:29.569Z,22.95
2022-09-13T21:14:57.436Z,22.97
2022-09-13T21:17:27.109Z,22.98
2022-09-13T21:19:55.418Z,22.93
2022-09-13T21:22:24.911Z,22.95
2022-09-13T21:24:52.895Z,22.93
2022-09-13T21:27:21.237Z,22.80
2022-09-13T21:29:49.188Z,22.91
2022-09-13T21:32:17.060Z,22.86
2022-09-13T21:34:46.293Z,22.88
2022-09-13T21:37:14.182Z,22.87
2022-09-13T21:39:42.101Z,22.87
2022-09-13T21:42:09.989Z,22.86
2022-09-13T21:44:38.733Z,22.84
2022-09-13T21:47:06.912Z,22.84
2022-09-13T21:49:34.783Z,22.83
2022-09-13T21:52:04.359Z,22.83
2022-09-13T21:54:32.244Z,22.81
2022-09-13T21:57:00.113Z,22.81
2022-09-13T21:59:28.121Z,22.79
2022-09-13T22:01:56.076Z,22.80
2022-09-13T22:04:27.522Z,22.81
2022-09-13T22:06:55.694Z,22.78
2022-09-13T22:09:27.622Z,22.81
2022-09-13T22:11:56.615Z,22.72
2022-09-13T22:14:24.729Z,22.65
2022-09-13T22:16:53.652Z,22.79
2022-09-13T22:19:23.590Z,22.81
2022-09-13T22:21:54.949Z,22.81
2022-09-13T22:24:25.717Z,22.82
2022-09-13T22:26:55.376Z,22.81
2022-09-13T22:29:23.986Z,22.80
2022-09-13T22:31:52.388Z,22.80
2022-09-13T22:34:21.793Z,22.79
2022-09-13T22:36:49.738Z,22.79
2022-09-13T22:39:18.768Z,22.79
2022-09-13T22:41:48.021Z,22.79
2022-09-13T22:44:15.945Z,22.78
2022-09-13T22:46:45.062Z,22.79
2022-09-13T22:49:14.845Z,22.79
2022-09-13T22:51:45.054Z,22.80
2022-09-13T22:54:13.538Z,22.79
2022-09-13T22:56:41.573Z,22.78
2022-09-13T22:59:13.873Z,22.79
2022-09-13T23:01:42.390Z,22.78
2022-09-13T23:04:10.696Z,22.77
2022-09-13T23:06:39.201Z,22.78
2022-09-13T23:09:08.777Z,22.76
2022-09-13T23:11:38.310Z,22.79
2022-09-13T23:14:09.866Z,22.78
2022-09-13T23:16:41.125Z,22.78
2022-09-13T23:19:10.615Z,22.78
2022-09-13T23:21:38.921Z,22.77
2022-09-13T23:24:09.041Z,22.77
2022-09-13T23:26:36.922Z,22.73
2022-09-13T23:29:05.833Z,22.72
2022-09-13T23:31:35.827Z,22.74
2022-09-13T23:34:06.800Z,22.70
2022-09-13T23:36:36.325Z,22.76
2022-09-13T23:39:05.585Z,22.73
2022-09-13T23:41:33.896Z,22.74
2022-09-13T23:44:02.516Z,22.74
2022-09-13T23:46:30.996Z,22.74
2022-09-13T23:48:58.915Z,22.73
2022-09-13T23:51:28.632Z,22.74
2022-09-13T23:53:58.088Z,22.72
2022-09-13T23:56:26.755Z,22.73
2022-09-13T23:58:57.383Z,22.72
